Time;durP1;ratioP1;P1;durP2;ratioP2;P2;SDS_P1;SDS_P2;PMS_P1;PMS_P2;Temp;Humidity;BMP_temperature;BMP_pressure;BME280_temperature;BME280_humidity;BME280_pressure;Samples;Min_cycle;Max_cycle;Signal;HPM_P1;HPM_P2
2022/04/29 00:01:25;;;;;;;3.37;1.60;;;;;;;5.26;97.75;101818.00;5050945;28;20179;-73
2022/04/29 00:03:53;;;;;;;2.10;1.90;;;;;;;5.15;98.54;101819.69;5050356;28;20746;-73
2022/04/29 00:06:19;;;;;;;4.60;1.90;;;;;;;5.10;99.74;101829.63;5050185;28;20175;-73
2022/04/29 00:08:44;;;;;;;2.10;1.90;;;;;;;5.01;100.00;101826.44;5049362;28;20514;-73
2022/04/29 00:11:09;;;;;;;2.93;2.30;;;;;;;5.00;100.00;101820.22;5049871;28;20171;-73
2022/04/29 00:13:35;;;;;;;3.00;2.50;;;;;;;5.12;100.00;101825.59;5049769;28;20525;-73
2022/04/29 00:16:00;;;;;;;2.73;2.00;;;;;;;5.06;100.00;101827.38;5049836;28;20175;-73
2022/04/29 00:18:26;;;;;;;5.73;2.07;;;;;;;5.02;100.00;101820.78;5031572;28;20183;-73
2022/04/29 00:20:51;;;;;;;5.00;2.40;;;;;;;4.93;100.00;101827.66;5049611;28;20754;-73
2022/04/29 00:23:17;;;;;;;9.43;2.20;;;;;;;5.00;100.00;101822.09;5050210;28;20258;-73
2022/04/29 00:25:43;;;;;;;2.00;1.80;;;;;;;5.09;100.00;101826.09;5049731;28;20588;-72
2022/04/29 00:28:08;;;;;;;3.83;2.90;;;;;;;5.13;100.00;101816.41;5049338;28;20221;-73
2022/04/29 00:30:34;;;;;;;5.10;2.10;;;;;;;5.13;100.00;101813.69;5049766;28;20206;-73
2022/04/29 00:32:59;;;;;;;2.20;1.87;;;;;;;5.04;100.00;101807.81;5049581;28;20234;-74
2022/04/29 00:35:26;;;;;;;4.33;2.63;;;;;;;5.05;100.00;101814.06;5049712;28;20179;-73
2022/04/29 00:37:53;;;;;;;2.57;2.30;;;;;;;4.99;100.00;101809.63;5053056;28;20586;-73
2022/04/29 00:40:23;;;;;;;2.17;1.97;;;;;;;4.96;100.00;101810.09;5053179;28;20267;-72
2022/04/29 00:42:49;;;;;;;2.30;2.10;;;;;;;4.90;100.00;101814.56;5053225;28;20187;-73
2022/04/29 00:45:17;;;;;;;4.00;2.77;;;;;;;4.84;100.00;101809.31;5053221;28;20237;-73
2022/04/29 00:47:44;;;;;;;5.80;2.90;;;;;;;4.75;100.00;101811.56;5052846;28;20234;-73
2022/04/29 00:50:11;;;;;;;4.47;2.07;;;;;;;4.68;100.00;101811.69;5053172;28;20175;-73
2022/04/29 00:52:42;;;;;;;4.03;2.30;;;;;;;4.70;100.00;101815.00;5052945;28;20266;-72
2022/04/29 00:55:09;;;;;;;3.53;3.10;;;;;;;4.64;100.00;101807.84;5053039;28;20262;-72
2022/04/29 00:57:45;;;;;;;5.17;2.50;;;;;;;4.61;100.00;101802.06;5052837;28;20175;-74
2022/04/29 01:00:14;;;;;;;4.90;2.77;;;;;;;4.54;100.00;101802.19;5035042;28;20229;-73
2022/04/29 01:02:42;;;;;;;6.87;2.63;;;;;;;4.50;100.00;101800.22;5052830;28;20274;-73
2022/04/29 01:05:09;;;;;;;5.27;3.00;;;;;;;4.49;100.00;101788.56;5052854;28;20207;-73
2022/04/29 01:07:37;;;;;;;3.80;2.90;;;;;;;4.51;100.00;101788.31;5052465;28;20175;-73
2022/04/29 01:10:04;;;;;;;4.37;3.13;;;;;;;4.52;100.00;101785.38;5052870;28;20175;-73
2022/04/29 01:12:33;;;;;;;6.90;2.43;;;;;;;4.45;100.00;101785.47;5052595;28;20724;-73
2022/04/29 01:15:03;;;;;;;2.47;2.10;;;;;;;4.44;100.00;101788.44;5052869;28;20261;-73
2022/04/29 01:17:30;;;;;;;2.70;2.50;;;;;;;4.56;100.00;101791.94;5052264;28;20271;-73
2022/04/29 01:19:55;;;;;;;7.93;2.83;;;;;;;4.54;100.00;101785.97;5052398;28;20179;-73
2022/04/29 01:22:21;;;;;;;5.53;2.53;;;;;;;4.50;100.00;101789.38;5034674;28;20233;-72
2022/04/29 01:24:50;;;;;;;4.23;3.40;;;;;;;4.40;100.00;101782.69;5052450;28;20175;-73
2022/04/29 01:27:15;;;;;;;2.80;2.37;;;;;;;4.46;100.00;101778.19;5052079;28;20175;-73
2022/04/29 01:29:41;;;;;;;4.47;2.70;;;;;;;4.59;100.00;101779.81;5052451;28;20175;-72
2022/04/29 01:32:10;;;;;;;2.43;2.23;;;;;;;4.51;100.00;101782.91;5052229;28;20194;-72
2022/04/29 01:34:36;;;;;;;2.63;2.30;;;;;;;4.41;100.00;101780.78;5051863;28;20229;-72
2022/04/29 01:37:03;;;;;;;3.33;2.77;;;;;;;4.38;100.00;101770.47;5052114;28;20481;-73
2022/04/29 01:39:28;;;;;;;8.23;2.50;;;;;;;4.31;100.00;101769.75;5052009;28;20171;-73
2022/04/29 01:41:53;;;;;;;1.53;1.43;;;;;;;4.26;100.00;101783.97;5052088;28;20671;-73
2022/04/29 01:44:19;;;;;;;2.97;2.67;;;;;;;4.25;100.00;101781.53;5052055;28;20175;-73
2022/04/29 01:46:46;;;;;;;6.13;3.17;;;;;;;4.25;100.00;101779.63;5051213;28;20183;-73
2022/04/29 01:49:12;;;;;;;5.00;2.57;;;;;;;4.32;100.00;101784.91;5051568;28;20175;-73
2022/04/29 01:51:37;;;;;;;3.67;2.90;;;;;;;4.36;100.00;101770.69;5051911;28;20178;-72
2022/04/29 01:54:04;;;;;;;7.03;3.10;;;;;;;4.38;100.00;101765.03;5051909;28;20564;-72
2022/04/29 01:56:32;;;;;;;4.03;2.33;;;;;;;4.39;100.00;101756.69;5051765;28;20218;-73
2022/04/29 01:59:02;;;;;;;3.70;2.83;;;;;;;4.42;100.00;101760.78;5051511;28;20548;-73
2022/04/29 02:01:28;;;;;;;7.83;3.10;;;;;;;4.43;100.00;101751.63;5051661;28;20370;-73
2022/04/29 02:03:54;;;;;;;2.73;2.30;;;;;;;4.49;100.00;101753.38;5051826;28;20266;-73
2022/04/29 02:06:20;;;;;;;9.90;2.77;;;;;;;4.55;100.00;101757.81;5051586;28;20181;-73
2022/04/29 02:08:46;;;;;;;6.33;2.93;;;;;;;4.60;100.00;101760.63;5051451;28;20543;-73
2022/04/29 02:11:11;;;;;;;4.47;3.10;;;;;;;4.60;100.00;101748.97;5051577;28;20174;-74
2022/04/29 02:13:38;;;;;;;4.73;2.73;;;;;;;4.52;100.00;101744.78;5051299;28;20553;-73
2022/04/29 02:16:04;;;;;;;3.77;3.10;;;;;;;4.46;100.00;101748.41;5051388;28;20210;-73
2022/04/29 02:18:29;;;;;;;5.90;3.20;;;;;;;4.43;100.00;101748.91;5051612;28;20207;-74
2022/04/29 02:20:55;;;;;;;8.37;4.43;;;;;;;4.38;100.00;101741.50;5051429;28;20179;-73
2022/04/29 02:23:20;;;;;;;5.27;2.47;;;;;;;4.31;100.00;101748.91;5051373;28;20226;-73
2022/04/29 02:25:45;;;;;;;7.07;2.47;;;;;;;4.31;100.00;101731.88;5051295;28;20218;-73
2022/04/29 02:28:11;;;;;;;5.67;2.70;;;;;;;4.31;100.00;101742.69;5050876;28;20171;-73
2022/04/29 02:30:37;;;;;;;5.20;2.77;;;;;;;4.33;100.00;101738.69;5051152;28;20274;-73
2022/04/29 02:33:02;;;;;;;6.50;2.50;;;;;;;4.36;100.00;101737.41;5033195;28;20618;-73
2022/04/29 02:35:27;;;;;;;4.47;2.77;;;;;;;4.37;100.00;101731.75;5050688;28;20175;-73
2022/04/29 02:37:53;;;;;;;3.47;3.07;;;;;;;4.44;100.00;101735.13;5050867;28;20199;-73
2022/04/29 02:40:18;;;;;;;11.40;3.70;;;;;;;4.51;100.00;101726.09;5050958;28;20175;-72
2022/04/29 02:42:43;;;;;;;7.87;3.67;;;;;;;4.48;100.00;101733.63;5050852;28;20232;-73
2022/04/29 02:45:09;;;;;;;10.20;3.40;;;;;;;4.47;100.00;101734.66;5050920;28;20163;-73
2022/04/29 02:47:35;;;;;;;3.47;2.63;;;;;;;4.47;100.00;101740.06;5050948;28;20187;-73
2022/04/29 02:50:00;;;;;;;3.57;2.80;;;;;;;4.45;100.00;101738.66;5050851;28;20167;-72
2022/04/29 02:52:25;;;;;;;3.93;3.23;;;;;;;4.43;100.00;101730.78;5050752;28;20205;-73
2022/04/29 02:54:51;;;;;;;4.23;3.03;;;;;;;4.42;100.00;101736.44;5050766;28;20167;-73
2022/04/29 02:57:16;;;;;;;12.43;3.53;;;;;;;4.41;100.00;101737.50;5050462;28;20658;-73
2022/04/29 02:59:42;;;;;;;5.10;3.57;;;;;;;4.40;100.00;101730.44;5050436;28;20398;-73
2022/04/29 03:02:07;;;;;;;3.60;3.17;;;;;;;4.40;100.00;101723.16;5050791;28;20183;-73
2022/04/29 03:04:32;;;;;;;11.27;4.57;;;;;;;4.43;100.00;101728.09;5050814;28;20167;-72
2022/04/29 03:06:58;;;;;;;4.33;2.87;;;;;;;4.43;100.00;101724.56;5050502;28;20171;-73
2022/04/29 03:09:25;;;;;;;4.47;3.57;;;;;;;4.43;100.00;101714.56;5050385;28;20281;-73
2022/04/29 03:11:50;;;;;;;6.60;3.00;;;;;;;4.41;100.00;101715.84;5050396;28;20642;-75
2022/04/29 03:14:16;;;;;;;9.10;3.70;;;;;;;4.42;100.00;101712.09;5050593;28;20254;-73
2022/04/29 03:16:41;;;;;;;3.73;3.43;;;;;;;4.35;100.00;101714.94;5050359;28;20267;-75
2022/04/29 03:19:08;;;;;;;5.07;3.27;;;;;;;4.31;100.00;101711.03;5050311;28;20173;-73
2022/04/29 03:21:34;;;;;;;5.03;2.90;;;;;;;4.33;100.00;101705.41;5050390;28;20179;-73
2022/04/29 03:24:01;;;;;;;4.30;3.50;;;;;;;4.31;100.00;101705.63;5032348;28;20286;-73
2022/04/29 03:26:26;;;;;;;6.47;3.30;;;;;;;4.38;100.00;101708.22;5050317;28;20647;-73
2022/04/29 03:28:52;;;;;;;3.70;3.30;;;;;;;4.35;100.00;101706.00;5049974;28;20172;-73
2022/04/29 03:31:17;;;;;;;13.20;3.70;;;;;;;4.27;100.00;101701.78;5050365;28;20956;-73
2022/04/29 03:33:42;;;;;;;9.43;3.83;;;;;;;4.25;100.00;101694.97;5050545;28;20206;-73
2022/04/29 03:36:08;;;;;;;6.93;4.03;;;;;;;4.18;100.00;101693.19;5049725;28;20178;-73
2022/04/29 03:38:35;;;;;;;6.60;3.90;;;;;;;4.18;100.00;101695.06;5049929;28;20246;-73
2022/04/29 03:41:01;;;;;;;8.77;5.00;;;;;;;4.22;100.00;101690.84;5050214;28;20171;-73
2022/04/29 03:43:27;;;;;;;7.67;4.37;;;;;;;4.26;100.00;101693.91;5050421;28;20229;-73
2022/04/29 03:45:53;;;;;;;15.83;4.00;;;;;;;4.23;100.00;101687.09;5050503;28;20262;-73
2022/04/29 03:48:18;;;;;;;6.57;3.70;;;;;;;4.15;100.00;101688.25;5048553;28;20784;-73
2022/04/29 03:50:44;;;;;;;6.63;4.23;;;;;;;4.09;100.00;101691.13;5048707;28;20187;-73
2022/04/29 03:53:09;;;;;;;6.00;3.37;;;;;;;4.01;100.00;101689.56;5050441;28;20199;-73
2022/04/29 03:55:35;;;;;;;6.13;4.50;;;;;;;4.02;100.00;101685.81;5050663;28;20206;-73
2022/04/29 03:58:02;;;;;;;7.17;4.60;;;;;;;4.09;100.00;101686.53;5050299;28;20524;-73
2022/04/29 04:00:33;;;;;;;4.97;4.10;;;;;;;4.04;100.00;101690.97;5050477;28;20164;-74
2022/04/29 04:03:05;;;;;;;12.20;4.77;;;;;;;4.03;100.00;101687.47;5050467;28;20167;-73
2022/04/29 04:05:32;;;;;;;5.83;3.63;;;;;;;4.06;100.00;101683.47;5050488;28;20183;-73
2022/04/29 04:07:57;;;;;;;6.03;4.80;;;;;;;4.01;100.00;101694.16;5050231;28;20228;-73
2022/04/29 04:10:23;;;;;;;4.27;3.67;;;;;;;3.87;100.00;101677.38;5050682;28;20171;-73
2022/04/29 04:12:50;;;;;;;10.97;4.10;;;;;;;3.82;100.00;101682.66;5054238;28;20191;-72
2022/04/29 04:15:18;;;;;;;6.07;4.80;;;;;;;3.85;100.00;101687.59;5054375;28;20623;-72
2022/04/29 04:17:44;;;;;;;6.53;4.37;;;;;;;3.92;100.00;101687.50;5053924;28;20183;-73
2022/04/29 04:20:12;;;;;;;7.57;4.87;;;;;;;3.93;100.00;101687.25;5054440;28;20236;-73
2022/04/29 04:22:37;;;;;;;7.00;4.03;;;;;;;3.91;100.00;101683.97;5054071;28;20626;-73
2022/04/29 04:25:09;;;;;;;6.50;4.70;;;;;;;3.85;100.00;101688.41;5054396;28;20190;-73
2022/04/29 04:27:34;;;;;;;8.00;4.10;;;;;;;3.87;100.00;101696.28;5053908;28;20182;-72
2022/04/29 04:30:00;;;;;;;5.43;4.60;;;;;;;3.94;100.00;101693.47;5053943;28;20167;-73
2022/04/29 04:32:27;;;;;;;8.30;5.03;;;;;;;3.99;100.00;101688.19;5053883;28;20225;-73
2022/04/29 04:34:57;;;;;;;6.30;4.33;;;;;;;4.05;100.00;101688.06;5053651;28;20171;-73
2022/04/29 04:37:27;;;;;;;11.13;5.43;;;;;;;4.09;100.00;101689.22;5053634;28;21063;-79
2022/04/29 04:39:53;;;;;;;6.83;5.57;;;;;;;4.18;100.00;101690.50;5054194;28;20175;-73
2022/04/29 04:42:19;;;;;;;6.57;5.47;;;;;;;4.23;100.00;101692.50;5053509;28;20405;-74
2022/04/29 04:44:48;;;;;;;7.83;5.13;;;;;;;4.22;100.00;101700.84;5053901;28;20168;-73
2022/04/29 04:47:14;;;;;;;5.47;4.70;;;;;;;4.22;100.00;101706.25;5053389;28;20631;-73
2022/04/29 04:49:40;;;;;;;7.97;5.10;;;;;;;4.23;100.00;101702.50;5053834;28;20206;-73
2022/04/29 04:52:05;;;;;;;5.13;3.83;;;;;;;4.21;100.00;101697.31;5053452;28;20207;-79
2022/04/29 04:54:31;;;;;;;12.17;5.37;;;;;;;4.26;100.00;101696.59;5053453;28;20574;-74
2022/04/29 04:56:57;;;;;;;9.83;4.87;;;;;;;4.30;100.00;101704.00;5053244;28;20551;-72
2022/04/29 04:59:22;;;;;;;9.97;4.77;;;;;;;4.32;100.00;101711.88;5053305;28;20507;-73
2022/04/29 05:01:47;;;;;;;8.97;5.70;;;;;;;4.34;100.00;101705.19;5053682;28;20254;-72
2022/04/29 05:04:13;;;;;;;7.60;5.03;;;;;;;4.39;100.00;101712.56;5053653;28;20526;-73
2022/04/29 05:06:38;;;;;;;10.87;5.27;;;;;;;4.39;100.00;101707.97;5053244;28;20277;-75
2022/04/29 05:09:04;;;;;;;9.20;4.90;;;;;;;4.44;100.00;101709.97;5053444;28;20190;-73
2022/04/29 05:11:30;;;;;;;8.50;4.77;;;;;;;4.51;100.00;101704.44;5053217;28;20679;-73
2022/04/29 05:13:55;;;;;;;10.50;6.00;;;;;;;4.56;100.00;101708.06;5053288;28;20210;-73
2022/04/29 05:16:21;;;;;;;7.30;5.07;;;;;;;4.62;100.00;101703.56;5053208;28;20171;-72
2022/04/29 05:18:47;;;;;;;7.10;5.50;;;;;;;4.66;100.00;101712.84;5053123;28;20183;-74
2022/04/29 05:21:12;;;;;;;5.90;5.10;;;;;;;4.69;100.00;101715.06;5052783;28;20258;-73
2022/04/29 05:23:37;;;;;;;15.77;5.30;;;;;;;4.70;100.00;101720.25;5053068;28;20552;-73
2022/04/29 05:26:03;;;;;;;6.90;5.00;;;;;;;4.73;100.00;101722.47;5052818;28;20171;-73
2022/04/29 05:28:28;;;;;;;9.73;5.53;;;;;;;4.76;100.00;101719.28;5052782;28;20172;-73
2022/04/29 05:30:56;;;;;;;8.70;5.60;;;;;;;4.85;100.00;101721.59;5052755;28;20639;-73
2022/04/29 05:33:22;;;;;;;14.50;5.93;;;;;;;4.86;100.00;101724.06;5052807;28;20588;-73
2022/04/29 05:35:48;;;;;;;14.90;5.23;;;;;;;4.93;100.00;101726.66;5052507;28;20238;-76
2022/04/29 05:38:13;;;;;;;11.93;6.83;;;;;;;4.92;100.00;101723.13;5052387;28;20175;-72
2022/04/29 05:43:22;;;;;;;15.23;6.63;;;;;;;5.04;100.00;101731.16;5052587;28;20197;-74
2022/04/29 05:45:48;;;;;;;16.33;7.40;;;;;;;5.11;100.00;101728.31;5052918;28;20175;-73
2022/04/29 05:48:13;;;;;;;8.03;6.93;;;;;;;5.22;100.00;101732.88;5052619;28;20526;-72
2022/04/29 05:50:39;;;;;;;12.43;6.30;;;;;;;5.28;100.00;101726.47;5052993;28;20183;-76
2022/04/29 05:53:04;;;;;;;10.03;6.17;;;;;;;5.35;100.00;101733.38;5052339;28;20203;-77
2022/04/29 05:55:30;;;;;;;12.87;6.37;;;;;;;5.42;100.00;101727.78;5052312;28;20404;-73
2022/04/29 05:57:55;;;;;;;6.47;5.87;;;;;;;5.54;100.00;101722.28;5052486;28;20191;-76
2022/04/29 06:00:20;;;;;;;8.23;6.47;;;;;;;5.65;100.00;101730.34;5052065;28;20168;-75
2022/04/29 06:02:47;;;;;;;11.77;6.93;;;;;;;5.77;100.00;101727.53;5051758;28;20601;-72
2022/04/29 06:05:13;;;;;;;8.63;6.80;;;;;;;5.74;100.00;101736.16;5051506;28;20179;-73
2022/04/29 06:07:38;;;;;;;9.67;6.43;;;;;;;5.75;100.00;101726.97;5051425;28;20189;-75
2022/04/29 06:10:05;;;;;;;9.80;6.53;;;;;;;5.80;100.00;101723.53;5049338;28;20214;-74
2022/04/29 06:12:30;;;;;;;12.43;6.67;;;;;;;5.86;100.00;101728.75;5051487;28;20203;-80
2022/04/29 06:14:56;;;;;;;17.43;7.70;;;;;;;5.85;100.00;101721.69;5051016;28;20183;-74
2022/04/29 06:17:22;;;;;;;9.13;6.83;;;;;;;6.01;100.00;101724.66;5043937;28;20175;-73
2022/04/29 06:19:47;;;;;;;11.53;5.87;;;;;;;6.08;100.00;101725.31;5047639;28;20581;-73
2022/04/29 06:22:12;;;;;;;11.43;6.77;;;;;;;6.08;100.00;101722.63;5051197;28;20183;-73
2022/04/29 06:24:39;;;;;;;10.30;6.80;;;;;;;6.12;100.00;101713.72;5051349;28;20209;-73
2022/04/29 06:27:05;;;;;;;12.93;6.90;;;;;;;6.30;100.00;101719.91;5051119;28;20528;-73
2022/04/29 06:29:30;;;;;;;13.17;8.20;;;;;;;6.38;100.00;101719.50;5051161;28;20181;-73
2022/04/29 06:31:55;;;;;;;7.53;6.67;;;;;;;6.37;100.00;101715.13;5051201;28;20234;-74
2022/04/29 06:34:21;;;;;;;11.70;8.10;;;;;;;6.36;100.00;101718.91;5050065;28;20310;-73
2022/04/29 06:36:46;;;;;;;10.03;7.70;;;;;;;6.37;100.00;101717.84;5051011;28;20236;-72
2022/04/29 06:39:11;;;;;;;10.37;7.10;;;;;;;6.40;100.00;101718.16;5050987;28;20650;-73
2022/04/29 06:41:37;;;;;;;14.43;8.93;;;;;;;6.24;100.00;101717.16;5051088;28;20207;-72
2022/04/29 06:44:03;;;;;;;8.47;7.67;;;;;;;6.31;100.00;101719.66;5051050;28;20183;-73
2022/04/29 06:46:29;;;;;;;20.27;7.50;;;;;;;6.36;100.00;101716.19;5033171;28;20544;-73
2022/04/29 06:48:55;;;;;;;9.80;8.00;;;;;;;6.64;100.00;101720.59;5050766;28;20186;-72
2022/04/29 06:51:24;;;;;;;8.00;7.20;;;;;;;6.88;100.00;101721.97;5050935;28;20642;-73
2022/04/29 06:53:49;;;;;;;10.57;7.43;;;;;;;7.08;100.00;101721.34;5050698;28;20568;-73
2022/04/29 06:56:14;;;;;;;11.47;7.27;;;;;;;7.11;100.00;101718.16;5050842;28;20190;-73
2022/04/29 06:58:41;;;;;;;14.63;7.73;;;;;;;7.13;100.00;101719.53;5050576;28;20186;-72
2022/04/29 07:01:06;;;;;;;9.93;7.33;;;;;;;7.28;100.00;101718.03;5050529;28;20175;-75
2022/04/29 07:03:31;;;;;;;10.53;7.73;;;;;;;7.30;100.00;101724.03;5050662;28;20181;-73
2022/04/29 07:05:59;;;;;;;11.13;8.03;;;;;;;7.36;98.80;101720.25;5050672;28;20579;-73
2022/04/29 07:08:24;;;;;;;14.73;8.87;;;;;;;7.50;97.71;101726.91;5050251;28;20635;-73
2022/04/29 07:10:50;;;;;;;20.67;8.60;;;;;;;7.63;97.57;101714.78;5050667;28;20189;-73
2022/04/29 07:13:15;;;;;;;11.83;8.83;;;;;;;7.73;97.01;101712.97;5050557;28;20293;-73
2022/04/29 07:15:43;;;;;;;13.20;7.57;;;;;;;7.56;96.29;101719.63;5050520;28;20171;-73
2022/04/29 07:18:10;;;;;;;12.30;7.97;;;;;;;7.60;96.17;101718.03;5050321;28;20187;-73
2022/04/29 07:20:36;;;;;;;11.87;7.97;;;;;;;7.49;97.10;101714.41;5050727;28;20202;-73
2022/04/29 07:23:02;;;;;;;14.47;8.07;;;;;;;7.49;97.10;101714.41;5050453;28;20281;-73
2022/04/29 07:25:28;;;;;;;15.67;8.03;;;;;;;7.64;97.43;101706.34;5050564;28;20249;-73
2022/04/29 07:27:53;;;;;;;9.93;7.67;;;;;;;7.81;97.13;101705.38;5050068;28;20175;-73
2022/04/29 07:30:20;;;;;;;16.60;8.73;;;;;;;7.76;96.76;101698.03;5050285;28;20218;-73
2022/04/29 07:32:45;;;;;;;15.20;8.47;;;;;;;7.66;96.46;101698.75;5050152;28;20930;-74
2022/04/29 07:43:23;;;;;;;9.17;8.03;;;;;;;7.81;95.76;101694.50;5050191;28;20673;-73
2022/04/29 07:45:51;;;;;;;10.23;8.40;;;;;;;7.89;96.00;101697.56;5053338;28;20372;-73
2022/04/29 07:48:17;;;;;;;14.53;8.10;;;;;;;7.99;95.68;101696.81;5054077;28;20171;-73
2022/04/29 07:50:42;;;;;;;11.87;8.53;;;;;;;7.99;94.48;101691.38;5054734;28;20182;-73
2022/04/29 07:53:08;;;;;;;9.83;8.73;;;;;;;8.15;94.63;101690.38;5054372;28;20202;-76
2022/04/29 07:55:35;;;;;;;11.87;8.07;;;;;;;8.23;94.04;101697.19;5054278;28;20167;-73
2022/04/29 07:58:00;;;;;;;11.70;9.37;;;;;;;7.96;93.45;101700.06;5054063;28;20249;-74
2022/04/29 08:00:26;;;;;;;10.37;7.70;;;;;;;8.24;94.41;101701.56;5054289;28;20184;-74
2022/04/29 08:02:51;;;;;;;17.47;9.27;;;;;;;8.35;92.74;101695.94;5054086;28;20233;-76
2022/04/29 08:05:18;;;;;;;9.50;8.40;;;;;;;8.55;93.49;101699.84;5054029;28;20203;-74
2022/04/29 08:07:43;;;;;;;14.70;8.37;;;;;;;8.60;91.93;101697.94;5053604;28;20167;-73
2022/04/29 08:10:09;;;;;;;11.67;8.33;;;;;;;8.46;91.41;101701.44;5053964;28;20179;-74
2022/04/29 08:12:36;;;;;;;17.03;7.83;;;;;;;8.58;91.77;101704.75;5053971;28;20203;-74
2022/04/29 08:15:01;;;;;;;15.67;9.27;;;;;;;8.77;91.74;101700.44;5053870;28;20317;-73
2022/04/29 08:17:26;;;;;;;12.90;7.60;;;;;;;9.02;89.94;101701.59;5053500;28;20278;-73
2022/04/29 08:19:52;;;;;;;15.57;7.17;;;;;;;9.14;88.59;101700.25;5053616;28;20182;-74
2022/04/29 08:22:18;;;;;;;11.73;8.03;;;;;;;9.12;86.49;101704.34;5053728;28;20178;-73
2022/04/29 08:24:44;;;;;;;11.30;9.10;;;;;;;9.19;85.93;101694.81;5053627;28;20178;-73
2022/04/29 08:27:10;;;;;;;13.67;7.90;;;;;;;9.35;85.32;101692.91;5053354;28;20627;-73
2022/04/29 08:29:36;;;;;;;12.10;8.47;;;;;;;9.32;84.62;101696.19;5053593;28;20313;-74
2022/04/29 08:32:04;;;;;;;11.60;7.47;;;;;;;9.46;85.20;101693.72;5053437;28;20179;-74
2022/04/29 08:34:29;;;;;;;8.93;6.90;;;;;;;9.54;84.97;101683.06;5053220;28;20625;-75
2022/04/29 08:36:55;;;;;;;15.50;8.37;;;;;;;9.62;84.85;101691.81;5053367;28;20329;-77
2022/04/29 08:39:20;;;;;;;12.57;8.10;;;;;;;9.70;84.44;101688.53;5053310;28;20658;-73
2022/04/29 08:41:48;;;;;;;13.30;8.67;;;;;;;9.86;84.65;101687.41;5053308;28;20474;-73
2022/04/29 08:44:16;;;;;;;17.07;8.40;;;;;;;9.78;84.45;101666.94;5053362;28;20183;-73
2022/04/29 08:46:42;;;;;;;12.80;8.97;;;;;;;9.88;84.52;101665.31;5053117;28;20268;-74
2022/04/29 08:49:07;;;;;;;9.20;7.70;;;;;;;9.96;83.47;101672.91;5053114;28;20623;-73
2022/04/29 08:51:36;;;;;;;14.80;8.63;;;;;;;10.05;82.28;101674.81;5053164;28;20183;-74
2022/04/29 08:54:02;;;;;;;15.63;8.27;;;;;;;10.05;81.82;101672.06;5053093;28;20238;-74
2022/04/29 08:59:12;;;;;;;10.70;7.53;;;;;;;10.48;82.09;101668.94;5052919;28;20222;-74
2022/04/29 09:01:40;;;;;;;9.40;7.83;;;;;;;10.55;79.25;101673.00;5052934;28;20198;-75
2022/04/29 09:04:06;;;;;;;12.13;8.13;;;;;;;10.35;79.54;101664.91;5052931;28;20193;-74
2022/04/29 09:06:32;;;;;;;16.20;8.47;;;;;;;10.61;79.81;101660.13;5052703;28;20229;-74
2022/04/29 09:09:08;;;;;;;13.43;8.43;;;;;;;10.66;79.45;101663.66;5053230;28;20795;-74
2022/04/29 09:11:33;;;;;;;13.37;7.97;;;;;;;10.92;80.02;101667.06;5052870;28;20673;-74
2022/04/29 09:14:18;;;;;;;11.77;8.20;;;;;;;11.17;78.64;101657.03;5052917;28;20215;-74
2022/04/29 09:16:48;;;;;;;14.73;9.60;;;;;;;10.99;77.80;101663.97;5052572;28;20175;-74
2022/04/29 09:19:35;;;;;;;13.07;8.63;;;;;;;11.06;78.31;101653.56;5052526;28;20563;-74
2022/04/29 09:22:06;;;;;;;15.37;8.20;;;;;;;11.36;77.57;101652.50;5052504;28;20171;-74
2022/04/29 09:24:31;;;;;;;15.17;8.30;;;;;;;11.68;75.56;101651.91;5052654;28;20241;-72
2022/04/29 09:27:01;;;;;;;10.93;7.77;;;;;;;11.50;74.46;101650.72;5052754;28;20561;-73
2022/04/29 09:29:29;;;;;;;9.83;7.60;;;;;;;11.41;74.68;101657.09;5052382;28;20243;-73
2022/04/29 09:32:00;;;;;;;13.67;7.37;;;;;;;11.58;73.11;101650.13;5052399;28;20190;-74
2022/04/29 09:34:53;;;;;;;12.83;7.20;;;;;;;11.73;72.62;101646.41;5051966;28;20215;-74
2022/04/29 09:37:24;;;;;;;9.27;7.27;;;;;;;11.98;73.10;101650.00;5052030;28;20202;-74
2022/04/29 09:40:10;;;;;;;15.13;8.37;;;;;;;11.90;71.46;101638.59;5052361;28;20171;-73
2022/04/29 09:42:40;;;;;;;8.57;7.73;;;;;;;12.02;71.00;101651.06;5051737;28;20207;-75
2022/04/29 09:45:11;;;;;;;12.10;8.33;;;;;;;12.09;70.25;101644.13;5052409;28;20185;-75
2022/04/29 09:47:36;;;;;;;8.40;7.60;;;;;;;12.19;70.48;101641.25;5051879;28;20175;-74
2022/04/29 09:50:03;;;;;;;14.10;7.20;;;;;;;12.26;70.41;101634.59;5052042;28;20541;-73
2022/04/29 09:52:32;;;;;;;12.60;8.67;;;;;;;12.52;70.35;101635.91;5052480;28;20244;-74
2022/04/29 09:55:19;;;;;;;12.67;8.10;;;;;;;12.66;69.82;101639.53;5051866;28;20179;-73
2022/04/29 09:57:56;;;;;;;8.50;7.57;;;;;;;12.89;70.16;101631.53;5051844;28;20193;-75
2022/04/29 10:00:21;;;;;;;9.70;7.77;;;;;;;12.76;67.98;101622.94;5051970;28;20371;-73
2022/04/29 10:02:48;;;;;;;10.33;7.77;;;;;;;12.56;68.21;101625.16;5052047;28;20167;-73
2022/04/29 10:05:14;;;;;;;10.80;8.03;;;;;;;12.84;68.62;101620.63;5051770;28;20266;-73
2022/04/29 10:07:40;;;;;;;9.63;8.47;;;;;;;12.56;67.57;101616.94;5050982;28;20206;-74
2022/04/29 10:10:09;;;;;;;9.67;8.77;;;;;;;12.71;68.04;101617.53;5051123;28;20207;-74
2022/04/29 10:12:35;;;;;;;10.70;8.50;;;;;;;12.77;68.26;101619.09;5051615;28;20217;-73
2022/04/29 10:15:09;;;;;;;12.03;8.77;;;;;;;13.12;67.29;101611.41;5051821;28;20271;-73
2022/04/29 10:23:08;;;;;;;11.43;8.60;;;;;;;13.91;65.98;101614.13;5051497;28;20294;-73
2022/04/29 10:25:35;;;;;;;10.60;8.17;;;;;;;14.06;65.25;101610.28;5051444;28;20528;-73
2022/04/29 10:28:02;;;;;;;11.43;8.67;;;;;;;13.66;65.79;101604.44;5051461;28;20641;-75
2022/04/29 10:30:34;;;;;;;11.23;8.83;;;;;;;13.92;65.57;101602.84;5051207;28;20270;-73
2022/04/29 10:33:02;;;;;;;9.73;8.67;;;;;;;13.96;65.30;101601.09;5051299;28;20259;-73
2022/04/29 10:35:40;;;;;;;9.63;8.67;;;;;;;14.20;65.34;101594.59;5052005;28;20695;-73
2022/04/29 10:38:25;;;;;;;9.50;8.67;;;;;;;13.83;64.38;101599.16;5050898;28;20246;-73
2022/04/29 10:41:14;;;;;;;13.67;9.00;;;;;;;14.00;63.77;101595.81;5051135;28;20198;-73
2022/04/29 10:43:52;;;;;;;9.93;8.60;;;;;;;14.11;63.35;101599.16;5051056;28;20194;-73
2022/04/29 10:46:31;;;;;;;11.07;8.00;;;;;;;14.52;62.87;101593.63;5051436;28;20197;-73
2022/04/29 10:48:56;;;;;;;9.37;8.53;;;;;;;14.67;63.46;101589.72;5051066;28;20167;-73
2022/04/29 10:51:27;;;;;;;9.00;8.10;;;;;;;15.00;62.14;101579.28;5050988;28;20310;-73
2022/04/29 10:53:57;;;;;;;8.40;7.50;;;;;;;14.97;61.62;101585.41;5050909;28;20206;-73
2022/04/29 10:56:30;;;;;;;8.40;7.60;;;;;;;14.91;61.67;101587.50;5050723;28;20538;-73
2022/04/29 10:59:05;;;;;;;13.23;8.30;;;;;;;14.98;60.67;101578.78;5046758;28;20572;-73
2022/04/29 11:01:33;;;;;;;9.73;8.83;;;;;;;15.02;61.03;101575.06;5041757;28;20265;-73
2022/04/29 11:04:00;;;;;;;9.60;8.80;;;;;;;15.30;62.10;101577.69;5051131;28;20181;-74
2022/04/29 11:06:41;;;;;;;9.73;8.80;;;;;;;15.62;61.85;101573.81;5051218;28;20187;-74
2022/04/29 11:09:23;;;;;;;9.73;8.73;;;;;;;15.68;59.98;101572.56;5051092;28;20198;-74
2022/04/29 11:11:49;;;;;;;13.00;9.20;;;;;;;15.88;59.89;101571.16;5051054;28;20615;-73
2022/04/29 11:14:15;;;;;;;9.90;8.93;;;;;;;15.37;58.46;101562.34;5051166;28;20209;-73
2022/04/29 11:17:14;;;;;;;10.87;8.37;;;;;;;15.34;59.75;101560.25;5051178;28;20175;-71
2022/04/29 11:19:45;;;;;;;10.50;8.47;;;;;;;15.43;59.13;101555.56;5050622;28;20730;-70
2022/04/29 11:25:01;;;;;;;11.50;9.43;;;;;;;15.75;58.86;101559.94;5031289;28;20247;-72
2022/04/29 11:27:33;;;;;;;12.07;9.00;;;;;;;15.75;56.95;101548.91;5030185;28;20246;-73
2022/04/29 11:30:02;;;;;;;14.10;9.00;;;;;;;15.97;56.94;101545.25;5029144;28;20242;-74
2022/04/29 11:32:28;;;;;;;11.07;9.90;;;;;;;15.94;57.45;101540.41;5048657;28;20186;-73
2022/04/29 11:34:55;;;;;;;10.43;8.83;;;;;;;15.99;57.24;101536.66;5050736;28;20175;-75
2022/04/29 11:37:29;;;;;;;12.13;9.10;;;;;;;15.93;58.85;101533.25;5050396;28;20171;-73
2022/04/29 11:39:55;;;;;;;14.80;9.20;;;;;;;15.88;56.75;101538.91;5051080;28;20167;-73
2022/04/29 11:42:21;;;;;;;10.57;9.67;;;;;;;15.69;57.04;101541.13;5050531;28;20179;-73
2022/04/29 11:44:49;;;;;;;10.70;9.63;;;;;;;15.58;57.14;101534.25;5050690;28;20186;-75
2022/04/29 11:47:16;;;;;;;9.57;8.10;;;;;;;16.15;57.33;101537.03;5050354;28;20167;-73